Time;durP1;ratioP1;P1;durP2;ratioP2;P2;SDS_P1;SDS_P2;PMS_P1;PMS_P2;Temp;Humidity;BMP_temperature;BMP_pressure;BME280_temperature;BME280_humidity;BME280_pressure;Samples;Min_cycle;Max_cycle;Signal;HPM_P1;HPM_P2
2023/03/30 00:01:16;;;;;;;9.23;3.10;;;;;;;12.68;73.86;100506.88;5051011;28;20094;-62
2023/03/30 00:03:43;;;;;;;5.95;3.22;;;;;;;12.71;73.58;100493.22;5047789;28;20036;-62
2023/03/30 00:06:10;;;;;;;9.63;3.03;;;;;;;12.72;73.55;100497.50;5052996;28;20064;-63
2023/03/30 00:08:36;;;;;;;10.70;3.50;;;;;;;12.72;73.54;100492.19;5055421;28;20108;-62
2023/03/30 00:11:10;;;;;;;8.85;3.22;;;;;;;12.68;74.32;100474.94;5041797;28;20113;-62
2023/03/30 00:13:36;;;;;;;7.97;3.10;;;;;;;12.64;73.93;100469.16;5050398;28;20036;-62
2023/03/30 00:16:03;;;;;;;6.65;3.10;;;;;;;12.63;73.70;100472.03;5055196;28;20106;-62
2023/03/30 00:18:29;;;;;;;12.35;3.22;;;;;;;12.58;74.04;100469.91;5053501;28;20037;-62
2023/03/30 00:20:55;;;;;;;7.05;3.03;;;;;;;12.51;74.44;100464.50;5051885;28;20030;-62
2023/03/30 00:23:21;;;;;;;8.15;3.20;;;;;;;12.48;74.47;100470.19;5054774;28;20028;-63
2023/03/30 00:25:46;;;;;;;10.52;3.40;;;;;;;12.46;74.52;100460.75;5054210;28;20360;-62
2023/03/30 00:28:12;;;;;;;8.13;3.20;;;;;;;12.43;75.37;100456.59;5052906;28;20056;-63
2023/03/30 00:30:38;;;;;;;9.18;3.00;;;;;;;12.41;75.23;100469.28;5050165;28;20028;-62
2023/03/30 00:33:03;;;;;;;7.68;3.33;;;;;;;12.42;74.60;100476.22;5053122;28;20032;-62
2023/03/30 00:35:29;;;;;;;7.35;2.92;;;;;;;12.41;74.66;100458.63;5051250;28;20035;-62
2023/03/30 00:38:02;;;;;;;9.35;3.03;;;;;;;12.40;74.82;100449.00;5055751;28;20039;-62
2023/03/30 00:40:29;;;;;;;7.32;3.00;;;;;;;12.41;74.53;100449.81;5052473;28;20104;-62
2023/03/30 00:43:02;;;;;;;9.65;3.22;;;;;;;12.38;74.77;100443.03;5046551;28;20032;-62
2023/03/30 00:45:33;;;;;;;5.93;3.00;;;;;;;12.33;74.61;100445.44;5053654;28;20033;-62
2023/03/30 00:48:08;;;;;;;8.75;3.22;;;;;;;12.31;75.35;100442.97;5054243;28;20041;-62
2023/03/30 00:50:36;;;;;;;7.78;2.90;;;;;;;12.28;75.00;100427.34;5051249;28;20095;-62
2023/03/30 00:53:15;;;;;;;6.57;2.78;;;;;;;12.23;75.41;100427.91;5051771;28;20032;-62
2023/03/30 00:55:41;;;;;;;8.70;2.92;;;;;;;12.15;75.67;100417.38;5051045;28;20108;-62
2023/03/30 00:58:08;;;;;;;6.50;3.15;;;;;;;12.18;75.29;100414.34;5053679;28;20025;-62
2023/03/30 01:00:37;;;;;;;7.75;3.20;;;;;;;12.14;76.23;100398.94;5049680;28;20045;-62
2023/03/30 01:03:10;;;;;;;10.30;3.30;;;;;;;12.13;75.90;100414.06;5051558;28;20361;-62
2023/03/30 01:05:38;;;;;;;11.93;3.40;;;;;;;12.15;75.71;100412.06;5051952;28;20026;-63
2023/03/30 01:08:06;;;;;;;7.45;3.08;;;;;;;12.15;75.96;100416.53;5053242;28;20538;-62
2023/03/30 01:10:33;;;;;;;9.43;3.30;;;;;;;12.15;75.65;100411.22;5050728;28;20040;-62
2023/03/30 01:12:59;;;;;;;8.90;3.22;;;;;;;12.11;75.93;100400.13;5051342;28;20492;-62
2023/03/30 01:15:27;;;;;;;7.18;3.25;;;;;;;12.13;75.68;100408.75;5051257;28;20032;-61
2023/03/30 01:18:11;;;;;;;5.97;2.95;;;;;;;12.12;76.54;100412.41;5044849;28;20040;-62
2023/03/30 01:21:00;;;;;;;7.63;2.92;;;;;;;12.10;76.15;100409.13;5053401;28;20037;-62
2023/03/30 01:23:56;;;;;;;9.25;3.20;;;;;;;12.08;76.26;100425.25;5053463;28;20029;-62
2023/03/30 01:26:53;;;;;;;7.35;3.17;;;;;;;12.08;76.82;100411.13;5049682;28;20071;-62
2023/03/30 01:29:35;;;;;;;6.53;3.25;;;;;;;12.06;76.65;100411.31;5043259;28;20037;-62
2023/03/30 01:32:24;;;;;;;7.38;2.80;;;;;;;12.03;76.75;100414.28;5050925;28;20037;-62
2023/03/30 01:35:30;;;;;;;6.78;3.00;;;;;;;12.03;77.17;100411.63;5052133;28;20419;-62
2023/03/30 01:38:23;;;;;;;7.28;3.17;;;;;;;12.09;77.11;100407.47;5052661;28;20097;-62
2023/03/30 01:41:00;;;;;;;8.32;3.33;;;;;;;12.29;75.50;100404.25;5051392;28;20033;-62
2023/03/30 01:43:35;;;;;;;6.80;3.00;;;;;;;12.38;75.20;100405.81;5048093;28;20048;-62
2023/03/30 01:46:08;;;;;;;4.78;2.58;;;;;;;12.51;74.64;100390.03;5047105;28;20033;-62
2023/03/30 01:48:44;;;;;;;;;;;;;;;12.56;75.42;100391.31;5051221;28;20045;-62
2023/03/30 01:51:18;;;;;;;10.48;3.00;;;;;;;12.64;73.84;100385.91;5053324;28;20307;-62
2023/03/30 01:53:51;;;;;;;4.05;2.40;;;;;;;12.68;73.74;100386.34;5051519;28;20044;-61
2023/03/30 01:56:22;;;;;;;;;;;;;;;12.73;74.59;100398.06;5050654;28;20869;-62
2023/03/30 01:59:04;;;;;;;6.15;2.55;;;;;;;12.67;74.15;100409.44;5042637;28;20004;-62
2023/03/30 02:01:33;;;;;;;4.85;2.63;;;;;;;12.65;74.17;100412.28;5047538;28;20392;-63
2023/03/30 02:04:01;;;;;;;9.07;2.75;;;;;;;12.70;73.38;100401.13;5050938;28;20361;-63
2023/03/30 02:06:42;;;;;;;7.15;2.60;;;;;;;12.71;73.73;100402.75;5044417;28;20452;-62
2023/03/30 02:09:15;;;;;;;7.07;2.80;;;;;;;12.77;72.90;100409.16;5052389;28;20377;-62
2023/03/30 02:11:45;;;;;;;7.07;2.83;;;;;;;12.73;73.55;100419.34;5047133;28;20491;-62
2023/03/30 02:14:14;;;;;;;4.80;2.90;;;;;;;12.74;73.08;100410.34;5050297;28;20033;-64
2023/03/30 02:16:44;;;;;;;6.88;2.80;;;;;;;12.73;72.86;100418.53;5050560;28;20032;-62
2023/03/30 02:19:11;;;;;;;7.05;2.70;;;;;;;12.71;73.49;100410.75;5050204;28;20028;-64
2023/03/30 02:21:37;;;;;;;17.08;3.17;;;;;;;12.67;74.06;100398.00;5045915;28;20524;-62
2023/03/30 02:24:06;;;;;;;6.57;2.67;;;;;;;12.63;73.88;100402.88;5046577;28;20109;-62
2023/03/30 02:26:32;;;;;;;8.32;2.95;;;;;;;12.61;74.10;100394.25;5043512;28;21822;-62
2023/03/30 02:28:58;;;;;;;7.70;2.80;;;;;;;12.59;74.35;100390.94;5050609;28;20079;-62
2023/03/30 02:31:23;;;;;;;4.93;2.80;;;;;;;12.57;74.51;100404.44;5050577;28;20376;-62
2023/03/30 02:34:06;;;;;;;11.80;2.78;;;;;;;12.56;75.27;100397.47;5047623;28;20037;-62
2023/03/30 02:36:51;;;;;;;6.55;2.92;;;;;;;12.54;74.81;100403.97;5048555;28;20036;-62
2023/03/30 02:39:34;;;;;;;7.78;3.00;;;;;;;12.54;74.90;100393.34;5049940;28;20112;-62
2023/03/30 02:42:12;;;;;;;8.15;2.85;;;;;;;12.54;74.93;100393.34;5047897;28;20086;-62
2023/03/30 02:45:11;;;;;;;5.97;2.90;;;;;;;12.51;75.19;100390.03;5051181;28;20040;-62
2023/03/30 02:48:03;;;;;;;10.60;3.05;;;;;;;12.55;74.99;100394.97;5049811;28;20440;-62
2023/03/30 02:50:34;;;;;;;10.93;2.80;;;;;;;12.54;74.77;100398.66;5049286;28;20086;-62
2023/03/30 02:53:40;;;;;;;8.98;2.88;;;;;;;12.55;75.20;100400.31;5042948;28;20037;-63
2023/03/30 02:56:36;;;;;;;8.40;3.10;;;;;;;12.58;74.92;100390.09;5050977;28;20064;-62
2023/03/30 02:59:07;;;;;;;5.97;2.80;;;;;;;12.57;74.35;100387.63;5048915;28;20508;-63
2023/03/30 03:01:36;;;;;;;7.90;2.75;;;;;;;12.54;74.68;100383.53;5048081;28;20496;-61
2023/03/30 03:04:03;;;;;;;6.95;2.75;;;;;;;12.58;74.82;100383.97;5046018;28;20496;-63
2023/03/30 03:06:31;;;;;;;9.77;2.90;;;;;;;12.62;74.52;100382.59;5049884;28;20413;-62
2023/03/30 03:08:57;;;;;;;7.65;2.80;;;;;;;12.68;73.88;100376.50;5047922;28;20021;-62
2023/03/30 03:11:22;;;;;;;5.32;2.60;;;;;;;12.73;73.79;100381.28;5045303;28;20154;-62
2023/03/30 03:13:48;;;;;;;5.88;2.63;;;;;;;12.78;73.44;100385.03;5050935;28;20051;-62
2023/03/30 03:16:15;;;;;;;6.70;2.80;;;;;;;12.78;73.70;100382.38;5051567;28;20029;-62
2023/03/30 03:18:40;;;;;;;5.57;2.65;;;;;;;12.77;73.65;100382.56;5040729;28;20043;-63
2023/03/30 03:21:07;;;;;;;7.65;2.80;;;;;;;12.73;74.08;100382.09;5043892;28;20096;-61
2023/03/30 03:23:34;;;;;;;7.63;2.60;;;;;;;12.68;74.17;100379.19;5050430;28;20029;-62
2023/03/30 03:26:00;;;;;;;7.82;2.67;;;;;;;12.68;74.55;100379.19;5050502;28;20121;-62
2023/03/30 03:28:26;;;;;;;5.30;2.60;;;;;;;12.63;74.64;100366.44;5049594;28;20107;-62
2023/03/30 03:30:52;;;;;;;6.35;2.55;;;;;;;12.64;74.40;100372.59;5051149;28;20032;-62
2023/03/30 03:33:19;;;;;;;7.50;2.60;;;;;;;12.67;74.08;100377.53;5049574;28;20040;-62
2023/03/30 03:35:44;;;;;;;8.40;2.63;;;;;;;12.65;74.20;100375.06;5048745;28;20076;-62
2023/03/30 03:38:11;;;;;;;6.85;3.03;;;;;;;12.65;74.04;100374.25;5049967;28;20737;-62
2023/03/30 03:40:36;;;;;;;4.38;2.58;;;;;;;12.64;74.00;100372.59;5050144;28;20029;-62
2023/03/30 03:43:02;;;;;;;8.50;2.80;;;;;;;12.61;74.31;100364.97;5049675;28;20021;-62
2023/03/30 03:45:27;;;;;;;5.72;2.75;;;;;;;12.64;73.73;100368.09;5047421;28;20563;-62
2023/03/30 03:47:53;;;;;;;5.50;2.58;;;;;;;12.65;73.56;100369.72;5049905;28;20049;-62
2023/03/30 03:50:19;;;;;;;5.28;2.67;;;;;;;12.67;73.50;100364.22;5049491;28;20072;-62
2023/03/30 03:52:45;;;;;;;7.60;2.65;;;;;;;12.65;73.48;100368.91;5048798;28;20075;-62
2023/03/30 03:55:11;;;;;;;5.55;2.70;;;;;;;12.71;72.77;100368.16;5048971;28;20021;-62
2023/03/30 03:57:37;;;;;;;10.52;2.83;;;;;;;12.72;72.61;100353.84;5049665;28;20041;-62
2023/03/30 04:00:04;;;;;;;5.63;2.60;;;;;;;12.77;72.25;100358.59;5049465;28;20033;-64
2023/03/30 04:02:29;;;;;;;8.00;2.70;;;;;;;12.74;72.17;100359.81;5038847;28;20055;-62
2023/03/30 04:04:56;;;;;;;7.80;2.80;;;;;;;12.76;72.25;100360.47;5047236;28;20438;-62
2023/03/30 04:07:24;;;;;;;6.15;2.63;;;;;;;12.78;71.96;100362.91;5048341;28;20087;-62
2023/03/30 04:09:50;;;;;;;7.70;2.90;;;;;;;12.81;72.22;100356.38;5049490;28;20029;-61
2023/03/30 04:12:15;;;;;;;6.72;2.70;;;;;;;12.84;72.66;100353.38;5046495;28;20090;-62
2023/03/30 04:14:40;;;;;;;7.22;2.60;;;;;;;12.81;73.44;100353.72;5050041;28;20434;-62
2023/03/30 04:17:06;;;;;;;8.95;2.80;;;;;;;12.70;74.11;100347.91;5048118;28;20119;-61
2023/03/30 04:19:31;;;;;;;6.47;3.03;;;;;;;12.63;74.99;100347.00;5048840;28;20025;-62
2023/03/30 04:21:57;;;;;;;7.47;2.80;;;;;;;12.62;74.39;100334.69;5045234;28;20469;-62
2023/03/30 04:24:24;;;;;;;7.85;2.83;;;;;;;12.54;74.86;100345.47;5049693;28;20033;-62
2023/03/30 04:26:50;;;;;;;7.57;3.03;;;;;;;12.53;74.92;100343.81;5042546;28;20033;-61
2023/03/30 04:29:16;;;;;;;9.27;2.90;;;;;;;12.47;76.39;100340.88;5042271;28;20028;-62
2023/03/30 04:31:45;;;;;;;7.55;2.65;;;;;;;12.43;75.97;100342.25;5045641;28;20060;-62
2023/03/30 04:34:11;;;;;;;5.82;2.80;;;;;;;12.35;76.14;100337.06;5044140;28;20143;-62
2023/03/30 04:36:37;;;;;;;7.43;2.90;;;;;;;12.31;76.72;100335.78;5045138;28;20090;-62
2023/03/30 04:39:05;;;;;;;7.32;2.85;;;;;;;12.28;76.67;100331.66;5043366;28;20044;-62
2023/03/30 04:41:34;;;;;;;9.13;3.10;;;;;;;12.28;76.72;100330.84;5051111;28;20470;-62
2023/03/30 04:44:02;;;;;;;9.05;2.83;;;;;;;12.29;76.76;100322.66;5047947;28;20376;-62
2023/03/30 04:46:27;;;;;;;5.68;2.83;;;;;;;12.29;76.48;100327.16;5046898;28;20023;-62
2023/03/30 04:48:53;;;;;;;10.40;3.03;;;;;;;12.24;76.96;100325.88;5044349;28;20046;-62
2023/03/30 04:51:18;;;;;;;9.07;2.80;;;;;;;12.21;77.21;100320.94;5052180;28;20033;-62
2023/03/30 04:53:43;;;;;;;7.88;2.85;;;;;;;12.18;77.60;100323.16;5053491;28;20037;-61
2023/03/30 04:56:10;;;;;;;10.85;3.17;;;;;;;12.16;77.42;100328.66;5048651;28;20033;-62
2023/03/30 04:58:35;;;;;;;8.27;3.40;;;;;;;12.13;77.43;100329.00;5052072;28;20037;-62
2023/03/30 05:01:02;;;;;;;8.55;2.97;;;;;;;12.10;77.68;100324.06;5053606;28;20021;-62
2023/03/30 05:03:27;;;;;;;7.93;2.80;;;;;;;12.07;77.99;100324.44;5054611;28;20065;-62
2023/03/30 05:05:52;;;;;;;8.43;3.08;;;;;;;12.06;78.68;100336.91;5043469;28;20917;-62
2023/03/30 05:08:17;;;;;;;9.65;3.20;;;;;;;12.12;80.03;100353.94;5048268;28;20037;-61
2023/03/30 05:10:43;;;;;;;7.68;2.90;;;;;;;12.19;80.77;100380.63;5043761;28;21480;-62
2023/03/30 05:13:08;;;;;;;8.63;3.40;;;;;;;11.95;84.44;100375.34;5042212;28;20033;-63
2023/03/30 05:15:33;;;;;;;9.20;3.78;;;;;;;11.78;87.28;100372.03;5046340;28;20472;-62
2023/03/30 05:17:59;;;;;;;10.05;3.80;;;;;;;11.60;89.43;100367.03;5049295;28;20555;-61
2023/03/30 05:20:24;;;;;;;10.20;3.80;;;;;;;11.50;92.29;100379.75;5047024;28;20029;-62
2023/03/30 05:22:50;;;;;;;9.35;3.78;;;;;;;11.50;93.22;100388.53;5047949;28;20033;-60
2023/03/30 05:25:15;;;;;;;11.63;3.80;;;;;;;11.42;94.83;100380.66;5051510;28;20461;-63
2023/03/30 05:27:40;;;;;;;9.10;3.85;;;;;;;11.33;96.23;100373.72;5051245;28;20036;-62
2023/03/30 05:30:07;;;;;;;7.85;3.90;;;;;;;11.23;97.65;100387.25;5051395;28;20017;-63
2023/03/30 05:32:32;;;;;;;8.82;4.00;;;;;;;11.08;99.73;100390.69;5051263;28;20036;-62
2023/03/30 05:34:57;;;;;;;11.57;4.30;;;;;;;11.03;100.00;100395.69;5052771;28;20036;-61
2023/03/30 05:37:23;;;;;;;12.30;4.38;;;;;;;11.01;100.00;100389.72;5050419;28;20118;-62
2023/03/30 05:39:48;;;;;;;12.07;4.10;;;;;;;10.98;100.00;100395.38;5050518;28;20465;-62
2023/03/30 05:42:13;;;;;;;10.18;4.10;;;;;;;10.92;100.00;100396.06;5051123;28;20516;-62
2023/03/30 05:44:39;;;;;;;10.02;4.03;;;;;;;10.90;100.00;100389.13;5049932;28;20040;-62
2023/03/30 05:47:04;;;;;;;10.55;4.05;;;;;;;10.88;100.00;100392.94;5050948;28;20124;-62
2023/03/30 05:49:30;;;;;;;7.63;3.85;;;;;;;10.82;100.00;100388.34;5053719;28;20033;-62
2023/03/30 05:51:55;;;;;;;9.77;3.42;;;;;;;10.86;100.00;100379.84;5052617;28;20040;-63
2023/03/30 05:54:21;;;;;;;11.00;3.40;;;;;;;10.90;100.00;100378.50;5049611;28;20067;-62
2023/03/30 05:56:47;;;;;;;10.68;3.40;;;;;;;10.85;100.00;100395.97;5051286;28;20048;-63
2023/03/30 05:59:12;;;;;;;10.70;3.65;;;;;;;11.00;100.00;100399.50;5050438;28;20033;-63
2023/03/30 06:01:38;;;;;;;12.25;3.80;;;;;;;10.97;100.00;100401.69;5048984;28;20029;-62
2023/03/30 06:04:03;;;;;;;14.52;4.35;;;;;;;10.90;100.00;100405.03;5049702;28;20033;-63
2023/03/30 06:06:29;;;;;;;12.63;3.72;;;;;;;10.80;100.00;100407.06;5048731;28;20040;-64
2023/03/30 06:08:54;;;;;;;12.43;4.30;;;;;;;10.85;100.00;100406.56;5046505;28;20535;-62
2023/03/30 06:11:20;;;;;;;11.82;4.30;;;;;;;10.68;100.00;100403.16;5047003;28;20095;-62
2023/03/30 06:13:45;;;;;;;14.07;4.47;;;;;;;10.75;100.00;100412.06;5049925;28;20025;-62
2023/03/30 06:16:11;;;;;;;12.93;4.13;;;;;;;10.70;100.00;100409.13;5048418;28;20029;-63
2023/03/30 06:18:36;;;;;;;12.25;3.85;;;;;;;10.77;100.00;100415.41;5047017;28;20151;-63
2023/03/30 06:21:07;;;;;;;12.30;3.70;;;;;;;10.75;100.00;100412.06;5048681;28;20028;-62
2023/03/30 06:23:33;;;;;;;15.43;4.00;;;;;;;10.76;100.00;100414.56;5045976;28;20469;-62
2023/03/30 06:26:00;;;;;;;14.95;4.38;;;;;;;10.73;100.00;100422.03;5046893;28;20025;-63
2023/03/30 06:28:26;;;;;;;12.40;3.83;;;;;;;10.76;100.00;100424.34;5045772;28;20025;-62
2023/03/30 06:30:52;;;;;;;13.45;4.20;;;;;;;10.80;100.00;100430.94;5047579;28;20029;-63
2023/03/30 06:33:18;;;;;;;11.30;4.00;;;;;;;10.87;100.00;100431.91;5050330;28;20048;-63
2023/03/30 06:35:45;;;;;;;15.35;4.05;;;;;;;10.80;100.00;100425.63;5047342;28;20095;-63
2023/03/30 06:38:11;;;;;;;13.05;3.70;;;;;;;10.87;100.00;100431.91;5048802;28;20112;-62
2023/03/30 06:40:36;;;;;;;11.68;3.90;;;;;;;10.76;100.00;100427.00;5037522;28;20120;-62
2023/03/30 06:43:02;;;;;;;12.88;3.90;;;;;;;10.80;100.00;100425.63;5050703;28;20029;-64
2023/03/30 06:45:27;;;;;;;12.25;3.72;;;;;;;10.73;100.00;100430.00;5049318;28;20032;-63
2023/03/30 06:47:53;;;;;;;14.27;3.88;;;;;;;10.75;100.00;100433.28;5051124;28;20435;-61
2023/03/30 06:50:18;;;;;;;14.05;4.20;;;;;;;10.77;100.00;100436.63;5051724;28;20029;-62
2023/03/30 06:52:44;;;;;;;12.57;3.60;;;;;;;10.80;100.00;100425.63;5048098;28;20031;-63
2023/03/30 06:55:09;;;;;;;13.90;3.70;;;;;;;10.79;100.00;100426.66;5042619;28;20033;-62
2023/03/30 06:57:34;;;;;;;13.60;4.00;;;;;;;10.85;100.00;100423.31;5045063;28;20025;-62
2023/03/30 07:00:00;;;;;;;13.20;3.78;;;;;;;11.05;100.00;100435.31;5044723;28;20055;-63
2023/03/30 07:02:25;;;;;;;13.90;3.60;;;;;;;10.92;100.00;100433.22;5043431;28;20477;-63
2023/03/30 07:04:51;;;;;;;13.65;3.90;;;;;;;11.13;100.00;100441.41;5044838;28;20374;-62
2023/03/30 07:07:16;;;;;;;12.52;3.40;;;;;;;11.02;100.00;100439.13;5045776;28;20060;-63
2023/03/30 07:09:42;;;;;;;10.57;3.47;;;;;;;11.08;100.00;100435.78;5044066;28;20059;-62
2023/03/30 07:12:07;;;;;;;10.80;3.25;;;;;;;11.08;100.00;100438.44;5043245;28;20025;-63
2023/03/30 07:14:33;;;;;;;13.68;3.65;;;;;;;11.14;100.00;100436.91;5042826;28;20029;-62
2023/03/30 07:16:58;;;;;;;15.50;3.70;;;;;;;11.16;100.00;100441.03;5044386;28;20039;-63
2023/03/30 07:19:23;;;;;;;11.65;3.00;;;;;;;11.20;100.00;100438.03;5045535;28;20092;-63
2023/03/30 07:21:49;;;;;;;12.25;3.30;;;;;;;11.28;100.00;100445.94;5045571;28;20101;-62
2023/03/30 07:24:15;;;;;;;12.27;3.05;;;;;;;11.34;100.00;100447.09;5041860;28;22331;-63
2023/03/30 07:26:40;;;;;;;15.50;3.28;;;;;;;11.41;100.00;100448.03;5044869;28;20560;-62
2023/03/30 07:29:06;;;;;;;11.13;2.88;;;;;;;11.47;98.76;100446.47;5041482;28;20017;-63
2023/03/30 07:31:31;;;;;;;14.00;3.45;;;;;;;11.50;98.83;100451.44;5043539;28;20123;-62
2023/03/30 07:33:57;;;;;;;11.68;3.08;;;;;;;11.64;97.43;100453.31;5043678;28;20036;-62
2023/03/30 07:36:22;;;;;;;13.35;3.60;;;;;;;11.61;98.12;100443.06;5044292;28;20057;-63
2023/03/30 07:38:47;;;;;;;13.20;3.30;;;;;;;11.56;98.38;100448.88;5044600;28;20484;-62
2023/03/30 07:41:15;;;;;;;16.42;3.13;;;;;;;11.57;96.66;100453.22;5043179;28;20058;-63
2023/03/30 07:43:40;;;;;;;13.40;3.00;;;;;;;11.64;95.92;100466.59;5044013;28;20341;-62
2023/03/30 07:46:08;;;;;;;11.52;3.13;;;;;;;11.75;94.46;100477.81;5042242;28;20026;-62
2023/03/30 07:48:33;;;;;;;13.40;3.28;;;;;;;11.69;95.77;100477.53;5039665;28;20045;-61
2023/03/30 07:51:01;;;;;;;13.18;3.00;;;;;;;11.69;96.54;100471.38;5041967;28;20499;-62
2023/03/30 07:53:27;;;;;;;10.98;3.20;;;;;;;11.73;96.20;100471.88;5041600;28;20040;-62
2023/03/30 07:55:52;;;;;;;17.65;2.90;;;;;;;11.81;94.42;100474.44;5044399;28;20445;-62
2023/03/30 07:58:18;;;;;;;15.98;3.58;;;;;;;11.86;93.40;100482.72;5041427;28;20036;-63
2023/03/30 08:00:43;;;;;;;17.00;3.80;;;;;;;11.98;93.18;100491.06;5042170;28;20433;-62
2023/03/30 08:03:10;;;;;;;15.13;3.50;;;;;;;11.95;92.95;100497.56;5041950;28;20432;-62
2023/03/30 08:05:36;;;;;;;16.13;3.60;;;;;;;12.07;90.20;100499.84;5042286;28;20028;-62
2023/03/30 08:08:02;;;;;;;13.82;3.13;;;;;;;12.00;91.00;100499.72;5041128;28;20033;-62
2023/03/30 08:10:27;;;;;;;16.52;4.00;;;;;;;11.96;93.03;100496.59;5042280;28;20124;-63
2023/03/30 08:12:53;;;;;;;14.40;3.40;;;;;;;12.05;93.61;100499.19;5041246;28;20121;-64
2023/03/30 08:15:18;;;;;;;12.13;3.05;;;;;;;12.05;93.05;100492.03;5041149;28;20043;-63
2023/03/30 08:17:44;;;;;;;12.50;3.22;;;;;;;12.12;92.32;100497.47;5042544;28;20115;-62
2023/03/30 08:20:10;;;;;;;14.45;3.58;;;;;;;12.14;92.07;100506.06;5044686;28;20726;-62
2023/03/30 08:22:35;;;;;;;12.60;3.47;;;;;;;12.26;89.61;100517.13;5045076;28;20707;-61
2023/03/30 08:25:00;;;;;;;14.90;3.38;;;;;;;12.12;90.03;100508.09;5044860;28;20107;-63
2023/03/30 08:27:26;;;;;;;17.33;3.67;;;;;;;12.13;89.48;100515.06;5045260;28;20029;-62
2023/03/30 08:29:53;;;;;;;15.48;3.65;;;;;;;12.20;88.60;100510.66;5044596;28;20480;-64
2023/03/30 08:32:19;;;;;;;13.77;3.78;;;;;;;12.24;87.43;100511.97;5046802;28;20116;-61
2023/03/30 08:34:44;;;;;;;18.55;4.00;;;;;;;12.24;87.26;100504.00;5045497;28;20103;-63
2023/03/30 08:37:10;;;;;;;19.83;3.63;;;;;;;12.27;86.72;100512.59;5045860;28;20051;-62
2023/03/30 08:39:36;;;;;;;16.38;3.75;;;;;;;12.28;85.53;100504.44;5046424;28;20036;-62
2023/03/30 08:42:11;;;;;;;13.57;3.95;;;;;;;12.45;84.80;100522.91;5044145;28;20373;-62
2023/03/30 08:44:42;;;;;;;17.08;3.50;;;;;;;12.44;83.17;100511.44;5045057;28;20045;-61
2023/03/30 08:47:13;;;;;;;17.30;4.20;;;;;;;12.51;82.92;100509.72;5044037;28;20076;-62
2023/03/30 08:50:05;;;;;;;19.25;4.57;;;;;;;12.67;82.23;100510.53;5042784;28;20054;-62
2023/03/30 08:52:32;;;;;;;18.58;3.70;;;;;;;12.67;79.72;100521.19;5042617;28;20076;-62
2023/03/30 08:54:58;;;;;;;18.60;4.28;;;;;;;12.67;80.41;100512.41;5045661;28;20111;-62
2023/03/30 08:57:36;;;;;;;19.27;4.00;;;;;;;12.80;80.77;100517.06;5045591;28;20440;-62
2023/03/30 09:00:28;;;;;;;21.15;3.85;;;;;;;12.81;79.10;100516.03;5044449;28;20052;-62
2023/03/30 09:03:26;;;;;;;17.00;3.35;;;;;;;12.90;79.58;100523.75;5035694;28;20489;-61
2023/03/30 09:05:57;;;;;;;18.08;3.63;;;;;;;12.90;78.81;100510.47;5046170;28;20053;-62
2023/03/30 09:08:28;;;;;;;19.13;3.58;;;;;;;13.03;77.09;100519.63;5046610;28;20032;-62
2023/03/30 09:11:03;;;;;;;16.38;3.70;;;;;;;13.20;77.39;100517.56;5044374;28;20780;-62
2023/03/30 09:13:34;;;;;;;17.50;3.63;;;;;;;13.17;80.02;100515.25;5046975;28;20033;-63
2023/03/30 09:16:21;;;;;;;17.85;3.65;;;;;;;13.10;78.01;100530.34;5043824;28;20071;-62
2023/03/30 09:18:52;;;;;;;17.42;3.78;;;;;;;13.02;76.88;100540.06;5047621;28;20069;-63
2023/03/30 09:21:21;;;;;;;15.55;3.78;;;;;;;13.00;77.08;100536.78;5043437;28;20110;-62
2023/03/30 09:23:47;;;;;;;16.65;3.65;;;;;;;12.96;76.88;100539.97;5046357;28;20017;-63
2023/03/30 09:26:26;;;;;;;20.60;3.88;;;;;;;13.00;75.22;100547.44;5046267;28;20033;-62
2023/03/30 09:28:57;;;;;;;18.23;4.25;;;;;;;12.94;74.82;100550.00;5047821;28;20029;-62
2023/03/30 09:31:46;;;;;;;19.70;4.50;;;;;;;12.88;78.32;100548.91;5044445;28;20072;-63
2023/03/30 09:34:39;;;;;;;19.45;4.30;;;;;;;12.97;78.48;100558.44;5046859;28;20033;-63
2023/03/30 09:37:15;;;;;;;16.27;4.05;;;;;;;13.25;78.05;100560.44;5049181;28;20029;-63
2023/03/30 09:39:40;;;;;;;20.33;4.43;;;;;;;13.31;77.45;100562.34;5050489;28;20029;-63
2023/03/30 09:42:15;;;;;;;25.80;4.75;;;;;;;13.27;74.09;100558.41;5048173;28;20032;-63
2023/03/30 09:44:44;;;;;;;23.63;4.80;;;;;;;13.34;73.12;100547.00;5047179;28;20033;-63
2023/03/30 09:47:24;;;;;;;21.17;4.30;;;;;;;13.40;73.28;100568.41;5047462;28;20068;-63
2023/03/30 09:50:03;;;;;;;16.15;3.47;;;;;;;13.55;71.50;100543.59;5045033;28;22056;-63
2023/03/30 09:52:35;;;;;;;23.95;4.80;;;;;;;13.51;71.45;100559.13;5046904;28;20029;-63
2023/03/30 09:55:17;;;;;;;23.90;4.45;;;;;;;13.48;72.55;100546.19;5046326;28;20040;-63
2023/03/30 09:57:42;;;;;;;18.67;4.50;;;;;;;13.45;72.33;100557.16;5044072;28;20029;-64
2023/03/30 10:00:31;;;;;;;19.55;4.22;;;;;;;13.37;73.22;100574.09;5048342;28;20456;-64
2023/03/30 10:03:03;;;;;;;19.38;4.55;;;;;;;13.32;71.83;100577.31;5047752;28;20032;-63
2023/03/30 10:05:31;;;;;;;22.60;4.15;;;;;;;13.38;70.81;100577.59;5046493;28;20033;-64
2023/03/30 10:07:59;;;;;;;23.25;4.10;;;;;;;13.29;72.44;100575.03;5051269;28;20036;-63
2023/03/30 10:10:25;;;;;;;18.88;4.50;;;;;;;13.24;73.11;100582.75;5049262;28;20029;-64
2023/03/30 10:12:54;;;;;;;16.98;4.28;;;;;;;13.31;71.16;100581.00;5048486;28;20476;-64
2023/03/30 10:15:23;;;;;;;18.73;4.38;;;;;;;13.17;72.49;100585.31;5049027;28;20025;-62
2023/03/30 10:17:51;;;;;;;20.63;4.57;;;;;;;13.28;71.84;100592.00;5047268;28;20048;-64
2023/03/30 10:20:25;;;;;;;16.92;4.03;;;;;;;13.38;71.73;100585.56;5047454;28;20032;-63
2023/03/30 10:22:58;;;;;;;22.85;4.15;;;;;;;13.52;71.84;100576.75;5044794;28;20030;-63
2023/03/30 10:25:26;;;;;;;21.52;4.32;;;;;;;13.44;73.65;100595.47;5044203;28;20034;-63
2023/03/30 10:27:56;;;;;;;23.15;5.40;;;;;;;13.50;71.86;100577.94;5043693;28;20044;-64
2023/03/30 10:30:25;;;;;;;22.48;5.03;;;;;;;13.64;70.70;100574.44;5047794;28;20191;-64
2023/03/30 10:32:54;;;;;;;22.67;5.00;;;;;;;13.63;70.31;100593.25;5042728;28;20294;-64
2023/03/30 10:35:23;;;;;;;20.05;4.38;;;;;;;13.56;69.99;100582.53;5044821;28;20033;-64
2023/03/30 10:37:52;;;;;;;20.00;4.60;;;;;;;13.55;70.88;100584.38;5047973;28;20037;-63
2023/03/30 10:40:26;;;;;;;18.83;4.57;;;;;;;13.65;70.87;100596.56;5039945;28;20381;-64
2023/03/30 10:42:55;;;;;;;20.60;4.63;;;;;;;13.82;68.99;100576.66;5042543;28;20043;-64
2023/03/30 10:46:07;;;;;;;20.33;4.32;;;;;;;14.13;70.26;100588.84;5040747;28;20024;-65
2023/03/30 10:49:00;;;;;;;17.27;4.13;;;;;;;14.27;67.94;100580.97;5036457;28;20059;-64
2023/03/30 10:51:43;;;;;;;18.73;4.20;;;;;;;14.23;66.89;100577.03;5042824;28;20135;-63
2023/03/30 10:54:46;;;;;;;20.17;4.35;;;;;;;14.29;68.48;100581.59;5043403;28;20051;-63
2023/03/30 10:57:20;;;;;;;22.23;4.55;;;;;;;14.43;67.29;100595.88;5045086;28;20036;-63
2023/03/30 10:59:51;;;;;;;16.50;4.40;;;;;;;14.35;65.90;100580.00;5043676;28;20060;-64
2023/03/30 11:02:24;;;;;;;18.70;4.40;;;;;;;14.29;67.26;100580.75;5044722;28;20025;-63
2023/03/30 11:04:57;;;;;;;;;;;;;;;14.68;65.26;100589.25;5043832;28;20455;-62
2023/03/30 11:07:31;;;;;;;18.95;4.72;;;;;;;14.35;65.93;100585.31;5046510;28;20630;-64
2023/03/30 11:10:04;;;;;;;18.95;4.25;;;;;;;14.07;67.58;100589.59;5043001;28;20040;-67
2023/03/30 11:12:35;;;;;;;;;;;;;;;14.47;67.03;100585.63;5047062;28;20029;-62
2023/03/30 11:15:08;;;;;;;19.90;4.18;;;;;;;14.49;69.59;100592.44;5043495;28;19944;-64
2023/03/30 11:17:54;;;;;;;22.13;4.72;;;;;;;14.51;67.26;100584.25;5042120;28;20036;-63
2023/03/30 11:20:30;;;;;;;15.18;4.20;;;;;;;14.58;66.43;100587.78;5046533;28;20093;-63
2023/03/30 11:23:10;;;;;;;20.45;4.35;;;;;;;14.55;66.48;100574.81;5043621;28;20036;-63
2023/03/30 11:25:48;;;;;;;17.77;4.68;;;;;;;14.53;68.10;100572.38;5044006;28;20025;-63
2023/03/30 11:28:44;;;;;;;17.67;4.00;;;;;;;14.54;67.29;100589.19;5043570;28;20029;-64
2023/03/30 11:31:34;;;;;;;17.08;3.97;;;;;;;14.39;67.03;100582.09;5043100;28;20053;-63
2023/03/30 11:34:22;;;;;;;17.10;4.22;;;;;;;14.29;65.63;100581.59;5045000;28;20066;-63